Time;durP1;ratioP1;P1;durP2;ratioP2;P2;SDS_P1;SDS_P2;PMS_P1;PMS_P2;Temp;Humidity;BMP_temperature;BMP_pressure;BME280_temperature;BME280_humidity;BME280_pressure;Samples;Min_cycle;Max_cycle;Signal;HPM_P1;HPM_P2
2022/03/31 00:00:41;;;;;;;8.93;1.05;;;4.40;99.90;;;;;;5065503;28;20078;-80
2022/03/31 00:03:10;;;;;;;5.57;1.10;;;4.40;99.90;;;;;;5065393;28;20032;-79
2022/03/31 00:05:36;;;;;;;2.53;0.88;;;4.30;99.90;;;;;;5065256;28;20067;-80
2022/03/31 00:08:15;;;;;;;1.02;0.82;;;4.30;99.90;;;;;;5084213;28;20500;-80
2022/03/31 00:10:41;;;;;;;1.60;0.80;;;4.30;99.90;;;;;;5067678;28;20381;-80
2022/03/31 00:13:28;;;;;;;1.48;0.88;;;4.20;99.90;;;;;;5068217;28;20043;-80
2022/03/31 00:15:56;;;;;;;7.28;3.15;;;4.20;99.90;;;;;;5082931;28;20079;-80
2022/03/31 00:18:22;;;;;;;10.93;4.93;;;4.20;99.90;;;;;;5067139;28;20051;-80
2022/03/31 00:34:17;;;;;;;2.35;1.13;;;4.10;99.90;;;;;;5085314;28;20052;-79
2022/03/31 00:36:43;;;;;;;3.35;1.08;;;4.10;99.90;;;;;;5087210;28;20075;-80
2022/03/31 00:41:53;;;;;;;2.42;1.00;;;4.10;99.90;;;;;;5082635;28;20052;-80
2022/03/31 00:44:19;;;;;;;6.97;1.48;;;4.10;99.90;;;;;;5083470;28;20083;-80
2022/03/31 00:46:49;;;;;;;2.83;1.30;;;4.10;99.90;;;;;;5083191;28;20043;-80
2022/03/31 00:49:24;;;;;;;3.58;1.15;;;4.10;99.90;;;;;;5083649;28;20458;-80
2022/03/31 00:51:52;;;;;;;4.05;1.23;;;4.00;99.90;;;;;;5083049;28;20047;-80
2022/03/31 00:54:19;;;;;;;3.95;1.40;;;4.00;99.90;;;;;;5083000;28;20043;-80
2022/03/31 00:56:48;;;;;;;3.22;0.93;;;3.90;99.90;;;;;;5083621;28;20043;-80
2022/03/31 00:59:15;;;;;;;4.35;1.17;;;3.90;99.90;;;;;;5066889;28;20066;-80
2022/03/31 01:01:43;;;;;;;5.30;1.30;;;4.00;99.90;;;;;;5082906;28;20104;-80
2022/03/31 01:04:09;;;;;;;8.15;2.20;;;3.90;99.90;;;;;;5081139;28;20067;-80
2022/03/31 01:06:35;;;;;;;5.13;1.40;;;3.90;99.90;;;;;;5081613;28;20051;-80
2022/03/31 01:09:02;;;;;;;2.65;1.50;;;3.90;99.90;;;;;;5082358;28;20040;-80
2022/03/31 01:11:32;;;;;;;6.30;1.65;;;3.90;99.90;;;;;;5082577;28;20048;-80
2022/03/31 01:13:58;;;;;;;4.57;1.35;;;3.90;99.90;;;;;;5066016;28;20409;-79
2022/03/31 01:16:25;;;;;;;5.22;1.90;;;3.90;99.90;;;;;;5065610;28;20105;-80
2022/03/31 01:18:51;;;;;;;7.50;2.20;;;3.90;99.90;;;;;;5082379;28;20413;-80
2022/03/31 01:21:17;;;;;;;5.88;2.17;;;3.90;99.90;;;;;;5081578;28;20111;-80
2022/03/31 01:23:44;;;;;;;5.57;2.03;;;4.00;99.90;;;;;;5080863;28;20443;-80
2022/03/31 01:26:10;;;;;;;3.72;1.80;;;3.90;99.90;;;;;;5080404;28;20059;-80
2022/03/31 01:28:43;;;;;;;6.75;2.42;;;4.00;99.90;;;;;;5063412;28;20036;-80
2022/03/31 01:31:10;;;;;;;5.03;2.30;;;4.10;99.90;;;;;;5063944;28;20036;-80
2022/03/31 01:33:40;;;;;;;5.68;2.50;;;4.00;99.90;;;;;;5080588;28;20558;-80
2022/03/31 01:36:07;;;;;;;5.65;2.85;;;4.00;99.90;;;;;;5080489;28;20040;-80
2022/03/31 01:38:33;;;;;;;8.77;3.67;;;4.10;99.90;;;;;;5080363;28;20047;-80
2022/03/31 01:40:59;;;;;;;9.77;5.00;;;4.00;99.90;;;;;;5063695;28;20050;-80
2022/03/31 01:43:27;;;;;;;8.23;3.90;;;3.90;99.90;;;;;;5079752;28;20066;-80
2022/03/31 01:45:54;;;;;;;11.50;4.90;;;4.00;99.90;;;;;;5080716;28;20048;-80
2022/03/31 01:48:20;;;;;;;10.55;4.32;;;3.90;99.90;;;;;;5080562;28;20502;-80
2022/03/31 01:50:46;;;;;;;9.85;5.07;;;3.90;99.90;;;;;;5063807;28;20068;-80
2022/03/31 01:53:14;;;;;;;9.00;5.18;;;3.90;99.90;;;;;;5080317;28;20048;-80
2022/03/31 01:55:40;;;;;;;8.35;4.50;;;3.80;99.90;;;;;;5063102;28;20071;-80
2022/03/31 01:58:06;;;;;;;8.98;5.22;;;3.90;99.90;;;;;;5080234;28;20493;-80
2022/03/31 02:00:33;;;;;;;12.55;6.13;;;3.80;99.90;;;;;;5080729;28;20157;-80
2022/03/31 02:02:59;;;;;;;9.77;5.70;;;3.70;99.90;;;;;;5080600;28;20042;-80
2022/03/31 02:05:25;;;;;;;12.88;5.57;;;3.70;99.90;;;;;;5063524;28;20096;-80
2022/03/31 02:07:57;;;;;;;10.57;6.00;;;3.70;99.90;;;;;;5079536;28;20036;-80
2022/03/31 02:10:27;;;;;;;10.75;6.60;;;3.70;99.90;;;;;;5062865;28;20036;-80
2022/03/31 02:12:54;;;;;;;11.52;6.97;;;3.70;99.90;;;;;;5079904;28;20043;-80
2022/03/31 02:15:20;;;;;;;10.07;6.63;;;3.70;99.90;;;;;;5079719;28;20036;-80
2022/03/31 02:17:47;;;;;;;12.60;6.78;;;3.70;99.90;;;;;;5081411;28;20042;-80
2022/03/31 02:20:12;;;;;;;10.98;6.22;;;3.70;99.90;;;;;;5081356;28;20082;-80
2022/03/31 02:22:39;;;;;;;13.32;7.68;;;3.60;99.90;;;;;;5081626;28;20036;-80
2022/03/31 02:25:08;;;;;;;16.10;8.43;;;3.60;99.90;;;;;;5064142;28;20043;-80
2022/03/31 02:27:38;;;;;;;10.52;6.57;;;3.50;99.90;;;;;;5079191;28;20099;-79
2022/03/31 02:30:06;;;;;;;16.45;8.25;;;3.60;99.90;;;;;;5079210;28;20035;-80
2022/03/31 02:32:32;;;;;;;13.85;7.03;;;3.60;99.90;;;;;;5063020;28;20059;-80
2022/03/31 02:34:58;;;;;;;10.18;6.72;;;3.60;99.90;;;;;;5060920;28;20048;-78
2022/03/31 02:37:23;;;;;;;12.27;7.13;;;3.50;99.90;;;;;;5076435;28;20520;-78
2022/03/31 02:39:49;;;;;;;11.38;7.25;;;3.50;99.90;;;;;;5076821;28;20115;-78
2022/03/31 02:42:16;;;;;;;10.15;7.20;;;3.50;99.90;;;;;;5059677;28;20531;-78
2022/03/31 02:44:42;;;;;;;10.73;7.75;;;3.50;99.90;;;;;;5076648;28;20081;-77
2022/03/31 02:47:09;;;;;;;11.05;6.40;;;3.40;99.90;;;;;;5062546;28;20046;-78
2022/03/31 02:49:34;;;;;;;10.35;6.93;;;3.40;99.90;;;;;;5076906;28;20037;-78
2022/03/31 02:52:01;;;;;;;9.82;6.65;;;3.40;99.90;;;;;;5077490;28;20039;-78
2022/03/31 02:57:12;;;;;;;12.07;7.03;;;3.40;99.90;;;;;;5078071;28;20044;-78
2022/03/31 02:59:38;;;;;;;13.52;7.30;;;3.40;99.90;;;;;;5076992;28;20044;-78
2022/03/31 03:02:04;;;;;;;9.15;6.40;;;3.40;99.90;;;;;;5076639;28;20070;-78
2022/03/31 03:04:30;;;;;;;7.95;5.53;;;3.40;99.90;;;;;;5060243;28;20043;-78
2022/03/31 03:06:55;;;;;;;10.07;5.90;;;3.40;99.90;;;;;;5076320;28;20040;-78
2022/03/31 03:09:21;;;;;;;7.63;6.05;;;3.30;99.90;;;;;;5059933;28;20040;-78
2022/03/31 03:11:47;;;;;;;10.02;6.20;;;3.40;99.90;;;;;;5076814;28;20408;-78
2022/03/31 03:14:14;;;;;;;10.02;5.50;;;3.40;99.90;;;;;;5076876;28;20044;-78
2022/03/31 03:16:40;;;;;;;7.47;5.38;;;3.40;99.90;;;;;;5076733;28;20443;-78
2022/03/31 03:19:07;;;;;;;12.57;6.50;;;3.30;99.90;;;;;;5076571;28;20071;-78
2022/03/31 03:21:32;;;;;;;8.73;6.30;;;3.30;99.90;;;;;;5076751;28;20044;-78
2022/03/31 03:23:58;;;;;;;10.52;6.80;;;3.30;99.90;;;;;;5060348;28;20383;-78
2022/03/31 03:26:24;;;;;;;10.85;7.07;;;3.40;99.90;;;;;;5060073;28;20044;-78
2022/03/31 03:28:49;;;;;;;11.88;7.32;;;3.40;99.90;;;;;;5066707;28;20458;-77
2022/03/31 03:31:15;;;;;;;11.30;7.53;;;3.30;99.90;;;;;;5084139;28;20044;-78
2022/03/31 03:33:41;;;;;;;14.85;8.52;;;3.30;99.90;;;;;;5067647;28;20067;-78
2022/03/31 03:36:12;;;;;;;12.32;7.60;;;3.20;99.90;;;;;;5067458;28;20036;-78
2022/03/31 03:38:41;;;;;;;22.17;9.48;;;3.40;99.90;;;;;;5068701;28;20044;-78
2022/03/31 03:41:08;;;;;;;19.90;11.90;;;3.40;99.90;;;;;;5069640;28;20451;-78
2022/03/31 03:43:34;;;;;;;19.10;11.27;;;3.20;99.90;;;;;;5069435;28;20032;-78
2022/03/31 03:45:59;;;;;;;17.33;9.95;;;3.20;99.90;;;;;;5086196;28;20050;-78
2022/03/31 03:48:25;;;;;;;18.65;12.15;;;3.30;99.90;;;;;;5086969;28;20107;-78
2022/03/31 03:50:53;;;;;;;18.35;11.35;;;3.20;99.90;;;;;;5087232;28;20043;-78
2022/03/31 03:53:19;;;;;;;19.23;11.70;;;3.20;99.90;;;;;;5087767;28;20069;-77
2022/03/31 03:55:45;;;;;;;14.75;10.25;;;3.20;99.90;;;;;;5086637;28;20055;-77
2022/03/31 03:58:11;;;;;;;19.75;10.70;;;3.20;99.90;;;;;;5071264;28;20039;-77
2022/03/31 04:00:36;;;;;;;17.08;10.15;;;3.30;99.90;;;;;;5086496;28;20068;-77
2022/03/31 04:03:02;;;;;;;14.07;9.85;;;3.20;99.90;;;;;;5086390;28;20060;-78
2022/03/31 04:05:27;;;;;;;14.75;10.18;;;3.30;99.90;;;;;;5085270;28;20036;-77
2022/03/31 04:07:53;;;;;;;21.23;11.10;;;3.20;99.90;;;;;;5069562;28;20091;-77
2022/03/31 04:10:18;;;;;;;17.13;11.13;;;3.20;99.90;;;;;;5085422;28;20382;-77
2022/03/31 04:12:44;;;;;;;15.43;11.82;;;3.30;99.90;;;;;;5069484;28;20566;-78
2022/03/31 04:15:13;;;;;;;18.02;13.02;;;3.30;99.90;;;;;;5083711;28;20044;-79
2022/03/31 04:17:39;;;;;;;20.00;13.43;;;3.20;99.90;;;;;;5083969;28;20047;-79
2022/03/31 04:20:05;;;;;;;22.27;14.93;;;3.20;99.90;;;;;;5067227;28;20074;-79
2022/03/31 04:22:33;;;;;;;18.48;12.63;;;3.20;99.90;;;;;;5067447;28;20047;-79
2022/03/31 04:24:59;;;;;;;16.15;12.05;;;3.20;99.90;;;;;;5082917;28;20051;-79
2022/03/31 04:27:25;;;;;;;19.52;12.63;;;3.10;99.90;;;;;;5083511;28;20405;-79
2022/03/31 04:29:50;;;;;;;16.17;11.55;;;3.10;99.90;;;;;;5083518;28;20040;-79
2022/03/31 04:32:16;;;;;;;16.45;11.20;;;3.30;99.90;;;;;;5082611;28;20482;-79
2022/03/31 04:34:41;;;;;;;15.45;11.93;;;3.20;99.90;;;;;;5083127;28;20502;-79
2022/03/31 04:37:07;;;;;;;17.42;12.13;;;3.20;99.90;;;;;;5082550;28;20051;-79
2022/03/31 04:39:33;;;;;;;17.33;12.32;;;3.20;99.90;;;;;;5063845;28;20047;-79
2022/03/31 04:41:58;;;;;;;18.02;12.23;;;3.30;99.90;;;;;;5063258;28;20043;-79
2022/03/31 04:44:24;;;;;;;16.20;12.15;;;3.30;99.90;;;;;;5062124;28;20177;-79
2022/03/31 04:46:49;;;;;;;22.70;13.73;;;3.30;99.90;;;;;;5062383;28;20093;-79
2022/03/31 04:49:15;;;;;;;17.42;12.10;;;3.30;99.90;;;;;;5079160;28;20047;-79
2022/03/31 04:51:41;;;;;;;16.77;12.00;;;3.30;99.90;;;;;;5078956;28;20047;-79
2022/03/31 04:54:06;;;;;;;14.63;10.35;;;3.30;99.90;;;;;;5061972;28;20489;-79
2022/03/31 04:56:32;;;;;;;13.80;9.73;;;3.30;99.90;;;;;;5078381;28;20507;-79
2022/03/31 04:58:58;;;;;;;14.88;10.50;;;3.20;99.90;;;;;;5078315;28;20412;-79
2022/03/31 05:01:24;;;;;;;16.02;11.48;;;3.30;99.90;;;;;;5078852;28;20036;-79
2022/03/31 05:03:50;;;;;;;14.60;9.93;;;3.30;99.90;;;;;;5078590;28;20032;-79
2022/03/31 05:06:16;;;;;;;15.35;11.32;;;3.10;99.90;;;;;;5099613;22;20024;-76
2022/03/31 05:08:42;;;;;;;15.70;11.88;;;3.20;99.90;;;;;;5093023;28;20051;-74
2022/03/31 05:11:08;;;;;;;18.70;12.60;;;3.10;99.90;;;;;;5093016;28;20032;-73
2022/03/31 05:13:34;;;;;;;14.10;10.73;;;3.10;99.90;;;;;;5094143;28;20032;-74
2022/03/31 05:15:59;;;;;;;14.82;11.70;;;3.10;99.90;;;;;;5094651;28;20137;-73
2022/03/31 05:18:25;;;;;;;11.88;9.40;;;3.10;99.90;;;;;;5113425;28;20042;-73
2022/03/31 05:20:51;;;;;;;10.65;9.02;;;3.10;99.90;;;;;;5112671;28;20260;-73
2022/03/31 05:23:17;;;;;;;10.55;8.10;;;3.00;99.90;;;;;;5113027;28;20082;-73
2022/03/31 05:25:43;;;;;;;8.82;7.53;;;3.00;99.90;;;;;;5114072;28;20075;-75
2022/03/31 05:28:09;;;;;;;8.63;7.20;;;3.00;99.90;;;;;;5112935;28;20042;-75
2022/03/31 05:30:35;;;;;;;9.40;8.40;;;3.00;99.90;;;;;;5113150;28;20036;-75
2022/03/31 05:33:02;;;;;;;7.85;6.80;;;3.00;99.90;;;;;;5114077;28;20035;-75
2022/03/31 05:35:28;;;;;;;8.55;7.50;;;3.00;99.90;;;;;;5113635;28;20050;-75
2022/03/31 05:37:54;;;;;;;10.05;8.75;;;2.90;99.90;;;;;;5112858;28;20039;-75
2022/03/31 05:40:20;;;;;;;9.45;7.85;;;2.90;99.90;;;;;;5112746;28;20039;-75
2022/03/31 05:42:46;;;;;;;7.82;7.03;;;2.80;99.90;;;;;;5095471;28;20059;-76
2022/03/31 05:45:12;;;;;;;10.20;7.57;;;2.90;99.90;;;;;;5112690;28;20050;-77
2022/03/31 05:47:43;;;;;;;8.55;7.65;;;2.90;99.90;;;;;;5113632;28;20438;-75
2022/03/31 05:50:10;;;;;;;9.73;8.15;;;3.00;99.90;;;;;;5113631;28;20035;-75
2022/03/31 05:52:40;;;;;;;9.20;8.13;;;2.90;99.90;;;;;;5113964;28;20043;-75
2022/03/31 05:55:07;;;;;;;8.73;7.63;;;3.00;99.90;;;;;;5112386;28;20071;-75
2022/03/31 05:57:34;;;;;;;10.02;8.30;;;3.00;99.90;;;;;;5113468;28;20096;-75
2022/03/31 06:00:00;;;;;;;9.50;8.38;;;2.90;99.90;;;;;;5113580;28;20043;-75
2022/03/31 06:02:26;;;;;;;8.70;7.68;;;2.90;99.90;;;;;;5112054;28;20059;-75
2022/03/31 06:04:51;;;;;;;9.82;7.97;;;3.00;99.90;;;;;;5113663;28;20042;-75
2022/03/31 06:07:17;;;;;;;9.88;8.15;;;3.10;99.90;;;;;;5112830;28;20040;-75
2022/03/31 06:09:43;;;;;;;9.95;7.85;;;3.10;99.90;;;;;;5112384;28;20043;-75
2022/03/31 06:12:09;;;;;;;8.70;7.63;;;3.10;99.90;;;;;;5113365;28;20039;-76
2022/03/31 06:14:35;;;;;;;7.38;6.40;;;3.10;99.90;;;;;;5113323;28;20047;-75
2022/03/31 06:17:00;;;;;;;8.20;7.38;;;3.10;99.90;;;;;;5111429;28;20412;-75
2022/03/31 06:19:26;;;;;;;7.97;7.20;;;3.00;99.90;;;;;;5113212;28;20374;-75
2022/03/31 06:21:51;;;;;;;7.13;6.43;;;3.10;99.90;;;;;;5113212;28;20039;-75
2022/03/31 06:24:17;;;;;;;7.47;6.40;;;3.10;99.90;;;;;;5112073;28;20051;-76
2022/03/31 06:26:43;;;;;;;7.75;6.95;;;3.00;99.90;;;;;;5112734;28;20071;-75
2022/03/31 06:29:08;;;;;;;8.45;7.47;;;3.00;99.90;;;;;;5111831;28;20043;-75
2022/03/31 06:31:35;;;;;;;7.70;6.90;;;3.10;99.90;;;;;;5111613;28;20035;-75
2022/03/31 06:34:01;;;;;;;7.70;6.90;;;3.10;99.90;;;;;;5113415;28;20104;-74
2022/03/31 06:36:28;;;;;;;8.43;7.53;;;3.00;99.90;;;;;;5111746;28;20086;-74
2022/03/31 06:38:54;;;;;;;8.80;7.55;;;3.00;99.90;;;;;;5112082;28;20496;-75
2022/03/31 06:41:19;;;;;;;10.18;7.95;;;3.00;99.90;;;;;;5112128;28;20124;-75
2022/03/31 06:43:48;;;;;;;9.15;8.23;;;2.90;99.90;;;;;;5094417;28;20088;-74
2022/03/31 06:46:14;;;;;;;10.95;8.18;;;2.90;99.90;;;;;;5112139;28;20036;-75
2022/03/31 06:48:42;;;;;;;9.77;8.40;;;2.80;99.90;;;;;;5112816;28;20035;-75
2022/03/31 06:51:09;;;;;;;11.88;9.57;;;2.90;99.90;;;;;;5111662;28;20508;-76
2022/03/31 06:53:39;;;;;;;11.80;9.45;;;2.80;99.90;;;;;;5112760;28;20104;-75
2022/03/31 06:56:10;;;;;;;11.57;9.30;;;2.90;99.90;;;;;;5111479;28;20473;-75
2022/03/31 06:58:36;;;;;;;13.25;10.25;;;3.00;99.90;;;;;;5111117;28;20492;-75
2022/03/31 07:01:04;;;;;;;11.73;9.50;;;3.00;99.90;;;;;;5110872;28;20040;-76
2022/03/31 07:03:30;;;;;;;11.00;9.27;;;2.90;99.90;;;;;;5111755;28;20040;-75
2022/03/31 07:05:56;;;;;;;12.45;11.15;;;3.00;99.90;;;;;;5111879;28;20035;-75
2022/03/31 07:08:22;;;;;;;12.18;9.65;;;3.10;99.90;;;;;;5112078;28;20039;-75
2022/03/31 07:10:48;;;;;;;13.32;10.77;;;3.10;99.90;;;;;;5111355;28;20052;-75
2022/03/31 07:13:13;;;;;;;14.57;10.27;;;3.00;99.90;;;;;;5110981;28;20493;-74
2022/03/31 07:15:39;;;;;;;12.35;9.88;;;3.00;99.90;;;;;;5110707;28;20047;-71
2022/03/31 07:18:05;;;;;;;11.55;9.65;;;3.00;99.90;;;;;;5112302;28;20031;-74
2022/03/31 07:20:33;;;;;;;12.85;10.00;;;3.10;99.90;;;;;;5110895;28;20081;-74
2022/03/31 07:22:59;;;;;;;11.90;10.50;;;3.10;99.90;;;;;;5110544;28;20764;-73
2022/03/31 07:25:25;;;;;;;12.77;10.27;;;3.10;99.90;;;;;;5110486;28;20039;-74
2022/03/31 07:27:51;;;;;;;12.55;10.13;;;3.10;99.90;;;;;;5112125;28;20458;-75
2022/03/31 07:30:18;;;;;;;11.93;9.75;;;3.10;99.90;;;;;;5112118;28;20186;-73
2022/03/31 07:32:55;;;;;;;11.25;9.60;;;3.20;99.90;;;;;;5112265;28;20047;-73
2022/03/31 07:35:23;;;;;;;12.50;10.30;;;3.20;99.90;;;;;;5111878;28;20123;-73
2022/03/31 07:37:49;;;;;;;11.85;9.63;;;3.20;99.90;;;;;;5111964;28;20090;-73
2022/03/31 07:40:15;;;;;;;12.38;9.50;;;3.20;99.90;;;;;;5110783;28;20549;-73
2022/03/31 07:42:41;;;;;;;12.20;10.40;;;3.30;99.90;;;;;;5111983;28;20051;-74
2022/03/31 07:45:07;;;;;;;11.80;9.93;;;3.20;99.90;;;;;;5111994;28;20107;-73
2022/03/31 07:47:33;;;;;;;13.07;10.45;;;3.20;99.90;;;;;;5111660;28;20043;-73
2022/03/31 07:49:59;;;;;;;12.52;10.45;;;3.20;99.90;;;;;;5111954;28;20036;-73
2022/03/31 07:52:24;;;;;;;12.45;10.57;;;3.30;99.90;;;;;;5111848;28;20046;-73
2022/03/31 07:54:50;;;;;;;10.52;8.85;;;3.30;99.90;;;;;;5112020;28;20031;-74
2022/03/31 07:57:16;;;;;;;11.25;8.98;;;3.40;99.90;;;;;;5111522;28;20089;-73
2022/03/31 07:59:42;;;;;;;8.68;7.68;;;3.40;99.90;;;;;;5111872;28;20126;-73
2022/03/31 08:02:08;;;;;;;10.50;8.13;;;3.30;99.90;;;;;;5111776;28;20040;-73
2022/03/31 08:04:33;;;;;;;7.40;6.05;;;3.30;99.90;;;;;;5111832;28;20039;-73
2022/03/31 08:06:59;;;;;;;7.95;6.35;;;3.30;99.90;;;;;;5110051;28;20040;-73
2022/03/31 08:09:26;;;;;;;8.02;7.22;;;3.40;99.90;;;;;;5110335;28;20073;-74
2022/03/31 08:11:52;;;;;;;7.15;5.80;;;3.40;99.90;;;;;;5111326;28;20098;-73
2022/03/31 08:14:19;;;;;;;7.72;5.95;;;3.30;99.90;;;;;;5113385;28;20043;-74
2022/03/31 08:16:46;;;;;;;7.55;5.80;;;3.30;99.90;;;;;;5114523;28;20032;-72
2022/03/31 08:19:13;;;;;;;7.50;5.97;;;3.10;99.90;;;;;;5114817;28;20103;-72
2022/03/31 08:21:38;;;;;;;7.50;5.70;;;3.00;99.90;;;;;;5115046;28;20090;-72
2022/03/31 08:24:04;;;;;;;7.28;5.88;;;3.10;99.90;;;;;;5115081;28;20400;-72
2022/03/31 08:26:30;;;;;;;7.95;6.00;;;3.00;99.90;;;;;;5115050;28;20477;-69
2022/03/31 08:28:55;;;;;;;8.48;5.47;;;3.00;99.90;;;;;;5115378;28;20027;-72
2022/03/31 08:31:21;;;;;;;7.90;6.32;;;3.00;99.90;;;;;;5115240;28;20128;-71
2022/03/31 08:33:47;;;;;;;8.40;6.45;;;2.90;99.90;;;;;;5113536;28;20092;-72
2022/03/31 08:36:12;;;;;;;6.63;5.53;;;2.90;99.90;;;;;;5114874;28;20046;-72
2022/03/31 08:38:38;;;;;;;8.32;6.78;;;2.90;99.90;;;;;;5114736;28;20042;-71
2022/03/31 08:41:03;;;;;;;10.18;7.75;;;2.90;99.90;;;;;;5113393;28;20131;-72
2022/03/31 08:43:30;;;;;;;9.88;7.70;;;2.80;99.90;;;;;;5114735;28;20059;-73
2022/03/31 08:45:56;;;;;;;9.93;7.57;;;2.80;99.90;;;;;;5114631;28;20028;-72
2022/03/31 08:48:24;;;;;;;10.90;8.45;;;2.60;99.90;;;;;;5114743;28;20036;-72
2022/03/31 08:50:50;;;;;;;9.80;6.80;;;2.70;99.90;;;;;;5113829;28;20035;-72
2022/03/31 08:53:16;;;;;;;13.50;8.45;;;2.70;99.90;;;;;;5114943;28;20084;-71
2022/03/31 08:55:41;;;;;;;11.57;8.60;;;2.70;99.90;;;;;;5114416;28;20726;-72
2022/03/31 08:58:08;;;;;;;12.18;8.88;;;2.70;99.90;;;;;;5113152;28;20039;-73
2022/03/31 09:00:34;;;;;;;14.40;9.15;;;2.70;99.90;;;;;;5113556;28;20434;-72
2022/03/31 09:03:05;;;;;;;16.00;10.18;;;2.70;99.90;;;;;;5114506;28;20166;-72
2022/03/31 09:05:41;;;;;;;18.75;12.20;;;2.60;99.90;;;;;;5113334;28;20484;-72
2022/03/31 09:08:09;;;;;;;20.50;12.45;;;2.60;99.90;;;;;;5114489;28;20051;-72
2022/03/31 09:10:47;;;;;;;21.58;14.23;;;2.60;99.90;;;;;;5113067;28;20085;-72
2022/03/31 09:13:38;;;;;;;23.58;16.67;;;2.60;99.90;;;;;;5113844;28;20059;-72
2022/03/31 09:16:08;;;;;;;24.15;15.88;;;2.60;99.90;;;;;;5109505;28;20477;-72
2022/03/31 09:18:34;;;;;;;22.20;14.30;;;2.60;99.90;;;;;;5114020;28;20642;-71
2022/03/31 09:21:03;;;;;;;23.92;15.30;;;2.60;99.90;;;;;;5112373;28;20058;-72
2022/03/31 09:23:32;;;;;;;21.70;14.35;;;2.50;99.90;;;;;;5112992;28;20031;-72
2022/03/31 09:26:11;;;;;;;17.50;12.52;;;2.50;99.90;;;;;;5111761;28;20405;-72
2022/03/31 09:28:37;;;;;;;17.27;11.82;;;2.50;99.90;;;;;;5113041;28;20034;-72
2022/03/31 09:31:04;;;;;;;14.65;10.57;;;2.40;99.90;;;;;;5114317;28;20044;-72
2022/03/31 09:33:40;;;;;;;11.45;8.27;;;2.40;99.90;;;;;;5113822;28;20088;-72
2022/03/31 09:36:18;;;;;;;12.10;8.10;;;2.40;99.90;;;;;;5112670;28;20467;-73
2022/03/31 09:38:55;;;;;;;9.05;6.50;;;2.40;99.90;;;;;;5111973;28;20039;-72
2022/03/31 09:41:32;;;;;;;10.10;7.78;;;2.40;99.90;;;;;;5112089;28;20043;-73
2022/03/31 09:44:03;;;;;;;8.80;6.80;;;2.40;99.90;;;;;;5113641;28;20032;-72
2022/03/31 09:46:35;;;;;;;11.30;6.93;;;2.40;99.90;;;;;;5126884;27;20489;-73
2022/03/31 09:49:23;;;;;;;10.32;7.38;;;2.40;99.90;;;;;;5112188;28;20035;-73
2022/03/31 09:52:08;;;;;;;13.15;9.57;;;2.30;99.90;;;;;;5109785;28;20071;-73
2022/03/31 09:54:34;;;;;;;16.10;11.18;;;2.30;99.90;;;;;;5112425;28;20090;-72
2022/03/31 09:57:03;;;;;;;22.40;13.68;;;2.20;99.90;;;;;;5113279;28;20548;-72
2022/03/31 09:59:34;;;;;;;20.30;13.00;;;2.30;99.90;;;;;;5113566;28;20040;-72
2022/03/31 10:02:01;;;;;;;18.77;11.57;;;2.00;99.90;;;;;;5095308;28;20089;-72
2022/03/31 10:04:27;;;;;;;16.70;11.55;;;2.00;99.90;;;;;;5112461;28;20039;-73
2022/03/31 10:06:53;;;;;;;13.77;8.90;;;2.00;99.90;;;;;;5112088;28;20035;-72
2022/03/31 10:09:20;;;;;;;16.80;10.50;;;2.00;99.90;;;;;;5113539;28;20043;-72
2022/03/31 10:11:54;;;;;;;13.95;9.43;;;1.90;99.90;;;;;;5112401;28;20370;-72
2022/03/31 10:14:52;;;;;;;16.02;11.05;;;1.90;99.90;;;;;;5113587;28;20064;-72
2022/03/31 10:17:25;;;;;;;16.98;10.90;;;1.80;99.90;;;;;;5113021;28;20050;-72
2022/03/31 10:19:50;;;;;;;16.17;10.55;;;1.90;99.90;;;;;;5111720;28;20043;-73
2022/03/31 10:25:07;;;;;;;18.30;11.60;;;1.80;99.90;;;;;;5111441;28;20051;-72
2022/03/31 10:27:36;;;;;;;19.08;12.55;;;1.80;99.90;;;;;;5108668;28;20033;-73
2022/03/31 10:30:16;;;;;;;19.98;12.27;;;1.80;99.90;;;;;;5112760;28;20066;-72
2022/03/31 10:32:54;;;;;;;15.65;10.00;;;1.80;99.90;;;;;;5111761;28;20527;-71
2022/03/31 10:35:41;;;;;;;14.23;9.70;;;1.90;99.90;;;;;;5112904;28;20424;-72
2022/03/31 10:38:23;;;;;;;12.82;8.85;;;1.80;99.90;;;;;;5111386;28;20079;-72
2022/03/31 10:40:59;;;;;;;11.82;8.57;;;1.70;99.90;;;;;;5110901;28;20114;-72
2022/03/31 10:43:31;;;;;;;11.90;8.82;;;1.80;99.90;;;;;;5110992;28;20035;-72
2022/03/31 10:46:00;;;;;;;12.15;8.73;;;1.80;99.90;;;;;;5112673;28;20114;-72
2022/03/31 10:48:30;;;;;;;12.10;8.90;;;1.70;99.90;;;;;;5112950;28;20040;-70
2022/03/31 10:51:07;;;;;;;11.70;8.30;;;1.70;99.90;;;;;;5112791;28;20039;-72
2022/03/31 10:53:39;;;;;;;11.30;8.27;;;1.60;99.90;;;;;;5112566;28;20048;-72
2022/03/31 10:56:24;;;;;;;10.60;7.90;;;1.60;99.90;;;;;;5112387;28;20035;-72
2022/03/31 10:58:52;;;;;;;11.02;8.18;;;1.60;99.90;;;;;;5111458;28;20055;-71
2022/03/31 11:01:19;;;;;;;10.95;7.10;;;1.40;99.90;;;;;;5112467;28;20047;-71
2022/03/31 11:03:52;;;;;;;11.13;8.32;;;1.60;99.90;;;;;;5111514;28;20592;-72
2022/03/31 11:06:18;;;;;;;;;;;1.50;99.90;;;;;;5110875;28;20099;-72
2022/03/31 11:08:48;;;;;;;10.38;7.47;;;1.40;99.90;;;;;;5110823;28;19919;-72
2022/03/31 11:11:22;;;;;;;10.82;8.13;;;1.40;99.90;;;;;;5111032;28;20040;-71
2022/03/31 11:13:48;;;;;;;10.68;7.43;;;1.40;99.90;;;;;;5112038;28;20101;-72
2022/03/31 11:16:15;;;;;;;8.95;7.28;;;1.30;99.90;;;;;;5110892;28;20039;-72
2022/03/31 11:18:42;;;;;;;9.30;7.20;;;1.30;99.90;;;;;;5110115;28;20038;-71
2022/03/31 11:21:08;;;;;;;11.20;8.23;;;1.40;99.90;;;;;;5106800;28;20051;-71
2022/03/31 11:23:33;;;;;;;12.63;7.85;;;1.40;99.90;;;;;;5088247;28;20028;-71
2022/03/31 11:25:59;;;;;;;9.90;7.70;;;1.40;99.90;;;;;;5099679;28;20077;-71
2022/03/31 11:28:29;;;;;;;9.75;7.07;;;1.40;99.90;;;;;;5106317;28;20043;-71
2022/03/31 11:30:55;;;;;;;11.90;8.20;;;1.50;99.90;;;;;;5057114;28;20032;-72
2022/03/31 11:33:21;;;;;;;10.75;7.78;;;1.50;99.90;;;;;;5090914;28;20113;-72
2022/03/31 11:35:52;;;;;;;12.23;8.95;;;1.40;99.90;;;;;;5091809;28;20040;-71
2022/03/31 11:38:18;;;;;;;11.23;8.85;;;1.50;99.90;;;;;;5090407;28;20075;-72
2022/03/31 11:40:46;;;;;;;13.25;9.05;;;1.50;99.90;;;;;;5091851;28;20430;-71
2022/03/31 11:43:14;;;;;;;11.48;8.75;;;1.40;99.90;;;;;;5074045;28;20409;-72
2022/03/31 11:45:48;;;;;;;12.43;9.52;;;1.50;99.90;;;;;;5110186;28;20562;-71
2022/03/31 11:48:21;;;;;;;;;;;1.50;99.90;;;;;;5108853;28;20083;-71
2022/03/31 11:50:56;;;;;;;15.35;11.20;;;1.40;99.90;;;;;;5115823;28;19922;-72
2022/03/31 11:53:31;;;;;;;15.00;11.07;;;1.40;99.90;;;;;;5094624;28;20097;-71
2022/03/31 11:56:06;;;;;;;15.95;11.15;;;1.40;99.90;;;;;;5094228;28;20501;-72
2022/03/31 11:58:57;;;;;;;16.42;10.90;;;1.40;99.90;;;;;;5098447;28;20035;-71
2022/03/31 12:01:37;;;;;;;17.08;11.63;;;1.50;99.90;;;;;;5112451;28;20531;-71
2022/03/31 12:04:07;;;;;;;13.88;10.93;;;1.40;99.90;;;;;;5114570;28;20039;-71
2022/03/31 12:06:33;;;;;;;16.55;11.50;;;1.30;99.90;;;;;;5114431;27;20103;-70
2022/03/31 12:08:59;;;;;;;16.02;10.90;;;1.40;99.90;;;;;;5116490;27;20114;-71
2022/03/31 12:11:25;;;;;;;18.08;13.13;;;1.40;99.90;;;;;;5114374;28;20071;-71
2022/03/31 12:13:54;;;;;;;14.85;11.00;;;1.50;99.90;;;;;;5119943;27;20088;-71
2022/03/31 12:16:21;;;;;;;16.30;12.23;;;1.40;99.90;;;;;;5113836;28;20032;-71
2022/03/31 12:18:55;;;;;;;16.02;11.95;;;1.40;99.90;;;;;;5115269;28;20043;-71
2022/03/31 12:21:21;;;;;;;18.17;15.23;;;1.50;99.90;;;;;;5115385;28;20040;-72
2022/03/31 12:23:47;;;;;;;18.65;13.38;;;1.60;99.90;;;;;;5115028;28;20031;-72
2022/03/31 12:26:20;;;;;;;16.20;13.35;;;1.60;99.90;;;;;;5113583;28;20113;-71
2022/03/31 12:28:47;;;;;;;19.50;14.35;;;1.70;99.90;;;;;;5114044;28;20039;-73
2022/03/31 12:31:20;;;;;;;19.73;13.25;;;1.70;99.90;;;;;;5114042;28;20040;-69
2022/03/31 12:33:51;;;;;;;20.50;15.65;;;1.60;99.90;;;;;;5113821;28;20085;-71
2022/03/31 12:36:23;;;;;;;18.80;13.85;;;1.60;99.90;;;;;;5112887;28;20039;-70
2022/03/31 12:38:51;;;;;;;18.52;13.88;;;1.60;99.90;;;;;;5109544;28;20489;-71
2022/03/31 12:41:23;;;;;;;20.20;14.80;;;1.60;99.90;;;;;;5114449;28;20513;-70
2022/03/31 12:44:09;;;;;;;20.65;16.63;;;1.60;99.90;;;;;;5114693;28;20058;-71
2022/03/31 12:46:52;;;;;;;21.92;15.63;;;1.60;99.90;;;;;;5113902;28;20405;-71
2022/03/31 12:49:19;;;;;;;21.38;15.98;;;1.70;99.90;;;;;;5114191;28;20043;-71
2022/03/31 12:51:49;;;;;;;24.35;17.02;;;1.70;99.90;;;;;;5114229;28;20054;-70
2022/03/31 12:54:28;;;;;;;24.73;17.35;;;1.80;99.90;;;;;;5114544;28;20054;-72
2022/03/31 12:57:04;;;;;;;26.88;19.65;;;1.70;99.90;;;;;;5112977;28;20071;-71
2022/03/31 12:59:33;;;;;;;24.98;18.42;;;1.70;99.90;;;;;;5112702;28;20051;-70
2022/03/31 13:02:06;;;;;;;26.63;19.05;;;1.80;99.90;;;;;;5112933;28;20043;-72
2022/03/31 13:04:32;;;;;;;30.58;19.08;;;1.80;99.90;;;;;;5114323;28;20485;-71
2022/03/31 13:06:57;;;;;;;30.52;20.48;;;1.80;99.90;;;;;;5113899;28;20043;-70
2022/03/31 13:09:23;;;;;;;27.15;20.42;;;1.80;99.90;;;;;;5113207;28;20044;-72
2022/03/31 13:11:51;;;;;;;29.52;20.08;;;1.80;99.90;;;;;;5114551;28;20044;-69
2022/03/31 13:14:19;;;;;;;27.92;19.58;;;1.80;99.90;;;;;;5114443;28;20562;-70